createdAt,value
2018-07-24T00:00:16.000Z,33
2018-07-24T00:02:16.000Z,33
2018-07-24T00:03:16.000Z,33
2018-07-24T00:04:16.000Z,33
2018-07-24T00:05:16.000Z,33
2018-07-24T00:07:16.000Z,33
2018-07-24T00:08:16.000Z,33
2018-07-24T00:09:16.000Z,33
2018-07-24T00:10:16.000Z,33
2018-07-24T00:11:16.000Z,33
2018-07-24T00:12:16.000Z,33
2018-07-24T00:13:16.000Z,33
2018-07-24T00:14:16.000Z,33
2018-07-24T00:15:16.000Z,33
2018-07-24T00:16:16.000Z,33
2018-07-24T00:17:16.000Z,33
2018-07-24T00:18:16.000Z,33
2018-07-24T00:20:16.000Z,33
2018-07-24T00:21:16.000Z,33
2018-07-24T00:23:16.000Z,33
2018-07-24T00:24:16.000Z,33
2018-07-24T00:25:16.000Z,33
2018-07-24T00:26:16.000Z,33
2018-07-24T00:27:16.000Z,33
2018-07-24T00:28:16.000Z,33
2018-07-24T00:29:16.000Z,33
2018-07-24T00:30:16.000Z,33
2018-07-24T00:31:16.000Z,33
2018-07-24T00:32:16.000Z,34
2018-07-24T00:33:16.000Z,34
2018-07-24T00:34:16.000Z,33
2018-07-24T00:35:16.000Z,33
2018-07-24T00:37:16.000Z,33
2018-07-24T00:38:16.000Z,33
2018-07-24T00:39:16.000Z,33
2018-07-24T00:40:16.000Z,33
2018-07-24T00:42:16.000Z,33
2018-07-24T00:43:16.000Z,33
2018-07-24T00:44:16.000Z,33
2018-07-24T00:45:16.000Z,34
2018-07-24T00:46:16.000Z,33
2018-07-24T00:47:16.000Z,34
2018-07-24T00:48:16.000Z,34
2018-07-24T00:49:16.000Z,34
2018-07-24T00:50:16.000Z,33
2018-07-24T00:51:16.000Z,33
2018-07-24T00:52:16.000Z,33
2018-07-24T00:53:16.000Z,33
2018-07-24T00:55:16.000Z,33
2018-07-24T00:56:16.000Z,33
2018-07-24T00:58:16.000Z,33
2018-07-24T00:59:16.000Z,33
2018-07-24T01:00:16.000Z,33
2018-07-24T01:01:16.000Z,33
2018-07-24T01:02:16.000Z,33
2018-07-24T01:03:16.000Z,34
2018-07-24T01:04:16.000Z,34
2018-07-24T01:05:16.000Z,34
2018-07-24T01:06:16.000Z,34
2018-07-24T01:08:16.000Z,33
2018-07-24T01:09:16.000Z,33
2018-07-24T01:10:16.000Z,33
2018-07-24T01:11:16.000Z,33
2018-07-24T01:12:16.000Z,33
2018-07-24T01:13:16.000Z,33
2018-07-24T01:14:16.000Z,33
2018-07-24T01:15:16.000Z,33
2018-07-24T01:16:16.000Z,33
2018-07-24T01:17:16.000Z,33
2018-07-24T01:18:16.000Z,33
2018-07-24T01:19:16.000Z,33
2018-07-24T01:20:16.000Z,33
2018-07-24T01:21:16.000Z,33
2018-07-24T01:22:16.000Z,33
2018-07-24T01:23:16.000Z,33
2018-07-24T01:25:16.000Z,33
2018-07-24T01:26:16.000Z,33
2018-07-24T01:27:16.000Z,33
2018-07-24T01:28:16.000Z,33
2018-07-24T01:29:16.000Z,33
2018-07-24T01:30:16.000Z,34
2018-07-24T01:31:16.000Z,34
2018-07-24T01:32:16.000Z,33
2018-07-24T01:33:16.000Z,33
2018-07-24T01:34:16.000Z,33
2018-07-24T01:35:16.000Z,34
2018-07-24T01:36:16.000Z,33
2018-07-24T01:37:16.000Z,33
2018-07-24T01:38:16.000Z,33
2018-07-24T01:40:16.000Z,33
2018-07-24T01:41:16.000Z,33
2018-07-24T01:42:16.000Z,33
2018-07-24T01:43:16.000Z,34
2018-07-24T01:44:16.000Z,33
2018-07-24T01:45:16.000Z,34
2018-07-24T01:47:16.000Z,33
2018-07-24T01:48:16.000Z,34
2018-07-24T01:49:16.000Z,34
2018-07-24T01:50:16.000Z,34
2018-07-24T01:52:16.000Z,34
2018-07-24T01:53:16.000Z,34
2018-07-24T01:55:16.000Z,34
2018-07-24T01:57:16.000Z,34
2018-07-24T01:58:16.000Z,34
2018-07-24T01:59:16.000Z,34
2018-07-24T02:00:16.000Z,34
2018-07-24T02:01:16.000Z,34
2018-07-24T02:02:16.000Z,34
2018-07-24T02:03:16.000Z,34
2018-07-24T02:04:16.000Z,34
2018-07-24T02:05:16.000Z,34
2018-07-24T02:06:16.000Z,34
2018-07-24T02:07:16.000Z,34
2018-07-24T02:08:16.000Z,34
2018-07-24T02:09:16.000Z,34
2018-07-24T02:10:16.000Z,34
2018-07-24T02:11:16.000Z,34
2018-07-24T02:13:16.000Z,34
2018-07-24T02:14:16.000Z,34
2018-07-24T02:16:16.000Z,34
2018-07-24T02:17:16.000Z,34
2018-07-24T02:18:16.000Z,34
2018-07-24T02:19:16.000Z,34
2018-07-24T02:20:16.000Z,34
2018-07-24T02:21:16.000Z,34
2018-07-24T02:22:16.000Z,34
2018-07-24T02:23:16.000Z,34
2018-07-24T02:25:16.000Z,34
2018-07-24T02:26:16.000Z,34
2018-07-24T02:27:16.000Z,34
2018-07-24T02:28:16.000Z,34
2018-07-24T02:29:16.000Z,34
2018-07-24T02:30:16.000Z,34
2018-07-24T02:32:16.000Z,34
2018-07-24T02:33:16.000Z,34
2018-07-24T02:34:16.000Z,34
2018-07-24T02:35:16.000Z,34
2018-07-24T02:36:16.000Z,34
2018-07-24T02:37:16.000Z,34
2018-07-24T02:39:16.000Z,34
2018-07-24T02:40:16.000Z,34
2018-07-24T02:41:16.000Z,34
2018-07-24T02:42:16.000Z,34
2018-07-24T02:43:16.000Z,34
2018-07-24T02:44:16.000Z,34
2018-07-24T02:45:16.000Z,34
2018-07-24T02:46:16.000Z,34
2018-07-24T02:47:16.000Z,34
2018-07-24T02:48:16.000Z,34
2018-07-24T02:49:16.000Z,34
2018-07-24T02:50:16.000Z,34
2018-07-24T02:51:16.000Z,34
2018-07-24T02:53:16.000Z,34
2018-07-24T02:54:16.000Z,34
2018-07-24T02:55:16.000Z,34
2018-07-24T02:56:16.000Z,34
2018-07-24T02:57:16.000Z,33
2018-07-24T02:58:16.000Z,34
2018-07-24T02:59:16.000Z,33
2018-07-24T03:00:16.000Z,34
2018-07-24T03:01:16.000Z,33
2018-07-24T03:02:16.000Z,34
2018-07-24T03:03:16.000Z,34
2018-07-24T03:04:16.000Z,34
2018-07-24T03:05:16.000Z,34
2018-07-24T03:06:16.000Z,34
2018-07-24T03:07:16.000Z,34
2018-07-24T03:08:16.000Z,34
2018-07-24T03:09:16.000Z,34
2018-07-24T03:10:16.000Z,34
2018-07-24T03:11:16.000Z,34
2018-07-24T03:12:16.000Z,34
2018-07-24T03:13:16.000Z,34
2018-07-24T03:14:16.000Z,34
2018-07-24T03:15:16.000Z,34
2018-07-24T03:16:16.000Z,34
2018-07-24T03:17:16.000Z,34
2018-07-24T03:19:16.000Z,33
2018-07-24T03:20:16.000Z,34
2018-07-24T03:22:16.000Z,34
2018-07-24T03:23:16.000Z,34
2018-07-24T03:24:16.000Z,34
2018-07-24T03:25:16.000Z,34
2018-07-24T03:26:16.000Z,34
2018-07-24T03:27:16.000Z,34
2018-07-24T03:29:16.000Z,34
2018-07-24T03:30:16.000Z,34
2018-07-24T03:31:16.000Z,34
2018-07-24T03:32:16.000Z,34
2018-07-24T03:33:16.000Z,34
2018-07-24T03:34:16.000Z,34
2018-07-24T03:35:16.000Z,34
2018-07-24T03:36:16.000Z,34
2018-07-24T03:37:16.000Z,34
2018-07-24T03:38:16.000Z,34
2018-07-24T03:39:16.000Z,34
2018-07-24T03:40:16.000Z,34
2018-07-24T03:41:16.000Z,34
2018-07-24T03:42:16.000Z,34
2018-07-24T03:43:16.000Z,34
2018-07-24T03:44:16.000Z,34
2018-07-24T03:45:16.000Z,34
2018-07-24T03:46:16.000Z,34
2018-07-24T03:47:16.000Z,34
2018-07-24T03:48:16.000Z,34
2018-07-24T03:49:16.000Z,34
2018-07-24T03:50:16.000Z,34
2018-07-24T03:51:16.000Z,34
2018-07-24T03:52:16.000Z,33
2018-07-24T03:53:16.000Z,34
2018-07-24T03:54:16.000Z,34
2018-07-24T03:56:16.000Z,34
2018-07-24T03:57:16.000Z,34
2018-07-24T03:58:16.000Z,34
2018-07-24T03:59:16.000Z,34
2018-07-24T04:00:16.000Z,34
2018-07-24T04:01:16.000Z,34
2018-07-24T04:03:16.000Z,34
2018-07-24T04:04:16.000Z,34
2018-07-24T04:05:16.000Z,34
2018-07-24T04:06:16.000Z,34
2018-07-24T04:07:16.000Z,34
2018-07-24T04:08:16.000Z,34
2018-07-24T04:09:16.000Z,34
2018-07-24T04:10:16.000Z,34
2018-07-24T04:12:16.000Z,34
2018-07-24T04:13:16.000Z,34
2018-07-24T04:14:16.000Z,34
2018-07-24T04:16:16.000Z,34
2018-07-24T04:17:16.000Z,34
2018-07-24T04:18:16.000Z,34
2018-07-24T04:19:16.000Z,34
2018-07-24T04:20:16.000Z,34
2018-07-24T04:21:16.000Z,34
2018-07-24T04:22:16.000Z,35
2018-07-24T04:23:16.000Z,36
2018-07-24T04:24:16.000Z,36
2018-07-24T04:25:16.000Z,37
2018-07-24T04:26:16.000Z,38
2018-07-24T04:27:16.000Z,38
2018-07-24T04:28:16.000Z,39
2018-07-24T04:29:16.000Z,40
2018-07-24T04:30:16.000Z,40
2018-07-24T04:31:16.000Z,41
2018-07-24T04:32:16.000Z,41
2018-07-24T04:36:02.000Z,43
2018-07-24T04:37:02.000Z,43
2018-07-24T04:38:02.000Z,43
2018-07-24T04:39:02.000Z,43
2018-07-24T04:40:02.000Z,44
2018-07-24T04:41:02.000Z,44
2018-07-24T04:42:02.000Z,44
2018-07-24T04:43:02.000Z,44
2018-07-24T04:44:02.000Z,45
2018-07-24T04:45:02.000Z,45
2018-07-24T04:46:02.000Z,45
2018-07-24T04:47:02.000Z,46
2018-07-24T04:48:02.000Z,46
2018-07-24T04:49:02.000Z,46
2018-07-24T04:50:02.000Z,46
2018-07-24T04:51:02.000Z,46
2018-07-24T04:52:02.000Z,47
2018-07-24T04:53:02.000Z,47
2018-07-24T04:54:02.000Z,47
2018-07-24T04:55:02.000Z,47
2018-07-24T04:56:01.000Z,47
2018-07-24T04:57:01.000Z,47
2018-07-24T04:58:01.000Z,47
2018-07-24T04:59:01.000Z,48
2018-07-24T05:00:01.000Z,48
2018-07-24T05:01:01.000Z,47
2018-07-24T05:02:01.000Z,48
2018-07-24T05:04:01.000Z,47
2018-07-24T05:05:01.000Z,48
2018-07-24T05:06:01.000Z,48
2018-07-24T05:07:01.000Z,48
2018-07-24T05:08:01.000Z,48
2018-07-24T05:09:01.000Z,48
2018-07-24T05:10:01.000Z,48
2018-07-24T05:11:01.000Z,48
2018-07-24T05:12:01.000Z,48
2018-07-24T05:13:01.000Z,48
2018-07-24T05:14:01.000Z,48
2018-07-24T05:15:01.000Z,48
2018-07-24T05:16:01.000Z,48
2018-07-24T05:17:01.000Z,48
2018-07-24T05:18:01.000Z,48
2018-07-24T05:19:01.000Z,48
2018-07-24T05:20:01.000Z,48
2018-07-24T05:21:01.000Z,48
2018-07-24T05:22:01.000Z,48
2018-07-24T05:23:01.000Z,48
2018-07-24T05:24:01.000Z,48
2018-07-24T05:25:01.000Z,48
2018-07-24T05:27:01.000Z,48
2018-07-24T05:28:01.000Z,48
2018-07-24T05:29:01.000Z,48
2018-07-24T05:30:01.000Z,48
2018-07-24T05:31:01.000Z,47
2018-07-24T05:32:01.000Z,48
2018-07-24T05:33:01.000Z,48
2018-07-24T05:35:01.000Z,47
2018-07-24T05:36:01.000Z,48
2018-07-24T05:37:01.000Z,48
2018-07-24T05:38:01.000Z,48
2018-07-24T05:40:01.000Z,48
2018-07-24T05:41:01.000Z,48
2018-07-24T05:42:01.000Z,48
2018-07-24T05:44:01.000Z,48
2018-07-24T05:45:01.000Z,49
2018-07-24T05:47:01.000Z,49
2018-07-24T05:48:01.000Z,49
2018-07-24T05:49:01.000Z,49
2018-07-24T05:50:01.000Z,50
2018-07-24T05:51:01.000Z,49
2018-07-24T05:52:01.000Z,49
2018-07-24T05:53:01.000Z,49
2018-07-24T05:54:01.000Z,49
2018-07-24T05:55:01.000Z,49
2018-07-24T05:57:01.000Z,48
2018-07-24T05:58:01.000Z,48
2018-07-24T05:59:01.000Z,48
2018-07-24T06:00:02.000Z,48
2018-07-24T06:01:02.000Z,48
2018-07-24T06:02:02.000Z,48
2018-07-24T06:03:02.000Z,48
2018-07-24T06:04:02.000Z,48
2018-07-24T06:05:02.000Z,48
2018-07-24T06:06:02.000Z,48
2018-07-24T06:07:02.000Z,48
2018-07-24T06:08:02.000Z,48
2018-07-24T06:10:02.000Z,47
2018-07-24T06:11:02.000Z,48
2018-07-24T06:13:02.000Z,48
2018-07-24T06:15:02.000Z,48
2018-07-24T06:16:02.000Z,48
2018-07-24T06:17:02.000Z,48
2018-07-24T06:18:02.000Z,48
2018-07-24T06:19:02.000Z,48
2018-07-24T06:21:02.000Z,48
2018-07-24T06:22:02.000Z,48
2018-07-24T06:23:02.000Z,48
2018-07-24T06:24:02.000Z,48
2018-07-24T06:25:02.000Z,48
2018-07-24T06:26:02.000Z,48
2018-07-24T06:27:02.000Z,48
2018-07-24T06:28:02.000Z,48
2018-07-24T06:29:02.000Z,48
2018-07-24T06:30:02.000Z,48
2018-07-24T06:31:02.000Z,48
2018-07-24T06:32:02.000Z,48
2018-07-24T06:33:02.000Z,48
2018-07-24T06:34:02.000Z,48
2018-07-24T06:35:02.000Z,48
2018-07-24T06:36:02.000Z,47
2018-07-24T06:37:02.000Z,47
2018-07-24T06:39:02.000Z,47
2018-07-24T06:41:02.000Z,47
2018-07-24T06:42:02.000Z,47
2018-07-24T06:43:02.000Z,47
2018-07-24T06:44:02.000Z,47
2018-07-24T06:45:02.000Z,47
2018-07-24T06:46:02.000Z,47
2018-07-24T06:48:02.000Z,46
2018-07-24T06:49:02.000Z,46
2018-07-24T06:50:02.000Z,46
2018-07-24T06:51:02.000Z,46
2018-07-24T06:53:02.000Z,45
2018-07-24T06:54:02.000Z,46
2018-07-24T06:55:02.000Z,46
2018-07-24T06:56:02.000Z,45
2018-07-24T06:58:02.000Z,45
2018-07-24T06:59:02.000Z,45
2018-07-24T07:00:02.000Z,45
2018-07-24T07:01:02.000Z,45
2018-07-24T07:02:02.000Z,45
2018-07-24T07:03:01.000Z,45
2018-07-24T07:04:01.000Z,45
2018-07-24T07:05:01.000Z,45
2018-07-24T07:06:01.000Z,44
2018-07-24T07:07:01.000Z,44
2018-07-24T07:08:01.000Z,44
2018-07-24T07:09:01.000Z,44
2018-07-24T07:11:01.000Z,43
2018-07-24T07:12:01.000Z,43
2018-07-24T07:13:01.000Z,43
2018-07-24T07:14:01.000Z,43
2018-07-24T07:15:01.000Z,43
2018-07-24T07:16:01.000Z,43
2018-07-24T07:17:01.000Z,43
2018-07-24T07:18:01.000Z,43
2018-07-24T07:19:01.000Z,43
2018-07-24T07:20:01.000Z,43
2018-07-24T07:21:01.000Z,42
2018-07-24T07:22:01.000Z,42
2018-07-24T07:23:01.000Z,42
2018-07-24T07:24:01.000Z,42
2018-07-24T07:25:01.000Z,42
2018-07-24T07:26:01.000Z,41
2018-07-24T07:27:01.000Z,41
2018-07-24T07:28:01.000Z,41
2018-07-24T07:30:01.000Z,41
2018-07-24T07:31:01.000Z,41
2018-07-24T07:32:01.000Z,41
2018-07-24T07:33:01.000Z,41
2018-07-24T07:35:01.000Z,40
2018-07-24T07:36:01.000Z,41
2018-07-24T07:37:01.000Z,40
2018-07-24T07:38:01.000Z,40
2018-07-24T07:40:01.000Z,40
2018-07-24T07:41:01.000Z,40
2018-07-24T07:42:01.000Z,39
2018-07-24T07:43:01.000Z,39
2018-07-24T07:44:01.000Z,39
2018-07-24T07:45:01.000Z,39
2018-07-24T07:46:01.000Z,39
2018-07-24T07:47:01.000Z,38
2018-07-24T07:49:01.000Z,38
2018-07-24T07:50:01.000Z,38
2018-07-24T07:51:01.000Z,38
2018-07-24T07:52:01.000Z,38
2018-07-24T07:53:01.000Z,38
2018-07-24T07:54:01.000Z,37
2018-07-24T07:56:01.000Z,37
2018-07-24T07:58:01.000Z,37
2018-07-24T07:59:01.000Z,37
2018-07-24T08:00:01.000Z,37
2018-07-24T08:01:01.000Z,37
2018-07-24T08:02:01.000Z,37
2018-07-24T08:03:01.000Z,36
2018-07-24T08:04:01.000Z,36
2018-07-24T08:05:01.000Z,36
2018-07-24T08:06:01.000Z,36
2018-07-24T08:07:02.000Z,36
2018-07-24T08:08:02.000Z,36
2018-07-24T08:09:02.000Z,36
2018-07-24T08:10:02.000Z,36
2018-07-24T08:11:02.000Z,36
2018-07-24T08:12:02.000Z,36
2018-07-24T08:13:02.000Z,36
2018-07-24T08:14:02.000Z,36
2018-07-24T08:15:02.000Z,36
2018-07-24T08:16:02.000Z,36
2018-07-24T08:17:02.000Z,36
2018-07-24T08:18:02.000Z,35
2018-07-24T08:19:02.000Z,35
2018-07-24T08:20:02.000Z,35
2018-07-24T08:21:02.000Z,35
2018-07-24T08:22:02.000Z,35
2018-07-24T08:24:02.000Z,35
2018-07-24T08:25:02.000Z,35
2018-07-24T08:26:02.000Z,35
2018-07-24T08:28:02.000Z,34
2018-07-24T08:29:02.000Z,34
2018-07-24T08:31:02.000Z,34
2018-07-24T08:32:02.000Z,34
2018-07-24T08:33:02.000Z,34
2018-07-24T08:35:02.000Z,33
2018-07-24T08:36:02.000Z,34
2018-07-24T08:37:02.000Z,34
2018-07-24T08:38:02.000Z,33
2018-07-24T08:40:02.000Z,33
2018-07-24T08:41:02.000Z,33
2018-07-24T08:42:02.000Z,33
2018-07-24T08:44:02.000Z,33
2018-07-24T08:45:02.000Z,33
2018-07-24T08:46:02.000Z,33
2018-07-24T08:47:02.000Z,33
2018-07-24T08:48:02.000Z,33
2018-07-24T08:49:02.000Z,33
2018-07-24T08:50:02.000Z,33
2018-07-24T08:51:02.000Z,33
2018-07-24T08:52:02.000Z,33
2018-07-24T08:53:02.000Z,33
2018-07-24T08:54:02.000Z,33
2018-07-24T08:55:02.000Z,33
2018-07-24T08:56:02.000Z,33
2018-07-24T08:57:02.000Z,33
2018-07-24T08:58:02.000Z,33
2018-07-24T08:59:02.000Z,33
2018-07-24T09:00:02.000Z,33
2018-07-24T09:01:02.000Z,33
2018-07-24T09:02:02.000Z,33
2018-07-24T09:03:02.000Z,33
2018-07-24T09:04:02.000Z,33
2018-07-24T09:05:02.000Z,33
2018-07-24T09:06:02.000Z,33
2018-07-24T09:08:02.000Z,32
2018-07-24T09:09:02.000Z,33
2018-07-24T09:10:02.000Z,33
2018-07-24T09:12:02.000Z,33
2018-07-24T09:13:02.000Z,33
2018-07-24T09:14:02.000Z,33
2018-07-24T09:15:02.000Z,32
2018-07-24T09:16:02.000Z,32
2018-07-24T09:17:02.000Z,32
2018-07-24T09:18:02.000Z,33
2018-07-24T09:19:02.000Z,33
2018-07-24T09:20:02.000Z,33
2018-07-24T09:21:02.000Z,33
2018-07-24T09:22:02.000Z,33
2018-07-24T09:23:02.000Z,33
2018-07-24T09:24:02.000Z,32
2018-07-24T09:25:02.000Z,32
2018-07-24T09:26:02.000Z,32
2018-07-24T09:27:02.000Z,32
2018-07-24T09:28:02.000Z,32
2018-07-24T09:29:02.000Z,32
2018-07-24T09:30:02.000Z,32
2018-07-24T09:31:02.000Z,32
2018-07-24T09:32:02.000Z,32
2018-07-24T09:34:02.000Z,32
2018-07-24T09:35:02.000Z,32
2018-07-24T09:37:02.000Z,32
2018-07-24T09:38:02.000Z,32
2018-07-24T09:39:02.000Z,32
2018-07-24T09:40:02.000Z,32
2018-07-24T09:41:02.000Z,32
2018-07-24T09:43:02.000Z,32
2018-07-24T09:44:02.000Z,32
2018-07-24T09:45:02.000Z,32
2018-07-24T09:46:02.000Z,32
2018-07-24T09:47:02.000Z,32
2018-07-24T09:48:02.000Z,32
2018-07-24T09:50:02.000Z,32
2018-07-24T09:51:02.000Z,32
2018-07-24T09:52:02.000Z,32
2018-07-24T09:53:02.000Z,32
2018-07-24T09:54:02.000Z,32
2018-07-24T09:56:02.000Z,31
2018-07-24T09:57:02.000Z,32
2018-07-24T09:59:02.000Z,31
2018-07-24T10:00:02.000Z,31
2018-07-24T10:01:02.000Z,31
2018-07-24T10:02:02.000Z,32
2018-07-24T10:03:02.000Z,31
2018-07-24T10:04:02.000Z,31
2018-07-24T10:06:02.000Z,31
2018-07-24T10:07:02.000Z,31
2018-07-24T10:08:02.000Z,31
2018-07-24T10:09:02.000Z,31
2018-07-24T10:10:02.000Z,31
2018-07-24T10:11:02.000Z,32
2018-07-24T10:12:02.000Z,31
2018-07-24T10:13:02.000Z,31
2018-07-24T10:14:02.000Z,31
2018-07-24T10:16:02.000Z,31
2018-07-24T10:17:02.000Z,31
2018-07-24T10:18:02.000Z,31
2018-07-24T10:19:02.000Z,31
2018-07-24T10:20:02.000Z,31
2018-07-24T10:21:02.000Z,31
2018-07-24T10:23:02.000Z,31
2018-07-24T10:24:02.000Z,31
2018-07-24T10:25:02.000Z,31
2018-07-24T10:26:02.000Z,31
2018-07-24T10:27:02.000Z,31
2018-07-24T10:28:02.000Z,31
2018-07-24T10:29:02.000Z,30
2018-07-24T10:30:02.000Z,30
2018-07-24T10:31:02.000Z,30
2018-07-24T10:32:02.000Z,30
2018-07-24T10:33:02.000Z,30
2018-07-24T10:34:02.000Z,30
2018-07-24T10:35:02.000Z,30
2018-07-24T10:36:02.000Z,30
2018-07-24T10:37:02.000Z,30
2018-07-24T10:38:02.000Z,30
2018-07-24T10:39:02.000Z,30
2018-07-24T10:40:02.000Z,30
2018-07-24T10:41:02.000Z,30
2018-07-24T10:42:02.000Z,30
2018-07-24T10:43:02.000Z,30
2018-07-24T10:44:02.000Z,30
2018-07-24T10:45:02.000Z,30
2018-07-24T10:47:02.000Z,30
2018-07-24T10:48:02.000Z,30
2018-07-24T10:49:02.000Z,31
2018-07-24T10:50:02.000Z,30
2018-07-24T10:52:02.000Z,30
2018-07-24T10:53:02.000Z,31
2018-07-24T10:54:02.000Z,31
2018-07-24T10:55:02.000Z,31
2018-07-24T10:56:02.000Z,31
2018-07-24T10:57:02.000Z,31
2018-07-24T10:59:02.000Z,30
2018-07-24T11:01:02.000Z,30
2018-07-24T11:02:02.000Z,31
2018-07-24T11:03:02.000Z,31
2018-07-24T11:04:02.000Z,31
2018-07-24T11:05:02.000Z,31
2018-07-24T11:06:02.000Z,31
2018-07-24T11:07:02.000Z,31
2018-07-24T11:08:02.000Z,30
2018-07-24T11:09:02.000Z,30
2018-07-24T11:10:02.000Z,30
2018-07-24T11:12:02.000Z,30
2018-07-24T11:13:02.000Z,30
2018-07-24T11:14:02.000Z,30
2018-07-24T11:15:02.000Z,30
2018-07-24T11:16:02.000Z,30
2018-07-24T11:17:02.000Z,30
2018-07-24T11:18:02.000Z,30
2018-07-24T11:19:02.000Z,30
2018-07-24T11:20:02.000Z,30
2018-07-24T11:21:02.000Z,30
2018-07-24T11:22:02.000Z,30
2018-07-24T11:23:02.000Z,30
2018-07-24T11:25:02.000Z,30
2018-07-24T11:26:02.000Z,30
2018-07-24T11:27:02.000Z,30
2018-07-24T11:29:02.000Z,30
2018-07-24T11:30:02.000Z,30
2018-07-24T11:32:02.000Z,30
2018-07-24T11:33:02.000Z,30
2018-07-24T11:35:02.000Z,30
2018-07-24T11:37:02.000Z,30
2018-07-24T11:38:02.000Z,30
2018-07-24T11:39:02.000Z,30
2018-07-24T11:40:02.000Z,30
2018-07-24T11:41:02.000Z,30
2018-07-24T11:42:02.000Z,30
2018-07-24T11:44:02.000Z,30
2018-07-24T11:45:02.000Z,30
2018-07-24T11:46:02.000Z,30
2018-07-24T11:47:02.000Z,30
2018-07-24T11:48:02.000Z,29
2018-07-24T11:49:02.000Z,30
2018-07-24T11:50:02.000Z,29
2018-07-24T11:52:02.000Z,29
2018-07-24T11:53:02.000Z,29
2018-07-24T11:54:02.000Z,29
2018-07-24T11:55:02.000Z,29
2018-07-24T11:56:02.000Z,29
2018-07-24T11:57:02.000Z,29
2018-07-24T11:58:02.000Z,29
2018-07-24T11:59:02.000Z,29
2018-07-24T12:00:02.000Z,29
2018-07-24T12:01:02.000Z,29
2018-07-24T12:03:02.000Z,29
2018-07-24T12:05:02.000Z,29
2018-07-24T12:06:02.000Z,29
2018-07-24T12:07:02.000Z,29
2018-07-24T12:08:02.000Z,29
2018-07-24T12:09:02.000Z,29
2018-07-24T12:10:02.000Z,29
2018-07-24T12:11:02.000Z,29
2018-07-24T12:12:02.000Z,29
2018-07-24T12:13:02.000Z,29
2018-07-24T12:14:02.000Z,29
2018-07-24T12:15:02.000Z,29
2018-07-24T12:16:02.000Z,29
2018-07-24T12:17:02.000Z,29
2018-07-24T12:18:02.000Z,29
2018-07-24T12:19:02.000Z,29
2018-07-24T12:20:02.000Z,29
2018-07-24T12:22:01.000Z,29
2018-07-24T12:23:01.000Z,29
2018-07-24T12:24:01.000Z,29
2018-07-24T12:25:01.000Z,29
2018-07-24T12:26:01.000Z,29
2018-07-24T12:27:01.000Z,30
2018-07-24T12:28:01.000Z,30
2018-07-24T12:30:01.000Z,30
2018-07-24T12:31:01.000Z,30
2018-07-24T12:33:01.000Z,30
2018-07-24T12:34:01.000Z,30
2018-07-24T12:35:01.000Z,30
2018-07-24T12:36:01.000Z,30
2018-07-24T12:37:01.000Z,30
2018-07-24T12:38:01.000Z,30
2018-07-24T12:39:01.000Z,30
2018-07-24T12:40:01.000Z,30
2018-07-24T12:41:01.000Z,30
2018-07-24T12:43:01.000Z,30
2018-07-24T12:44:01.000Z,30
2018-07-24T12:45:01.000Z,30
2018-07-24T12:46:01.000Z,30
2018-07-24T12:47:01.000Z,30
2018-07-24T12:48:01.000Z,30
2018-07-24T12:49:01.000Z,30
2018-07-24T12:50:01.000Z,30
2018-07-24T12:51:01.000Z,30
2018-07-24T12:52:01.000Z,30
2018-07-24T12:53:01.000Z,30
2018-07-24T12:54:01.000Z,30
2018-07-24T12:55:01.000Z,30
2018-07-24T12:56:01.000Z,30
2018-07-24T12:58:01.000Z,30
2018-07-24T12:59:01.000Z,30
2018-07-24T13:00:01.000Z,30
2018-07-24T13:01:01.000Z,30
2018-07-24T13:02:01.000Z,30
2018-07-24T13:03:01.000Z,30
2018-07-24T13:04:01.000Z,30
2018-07-24T13:05:01.000Z,30
2018-07-24T13:06:01.000Z,30
2018-07-24T13:07:01.000Z,30
2018-07-24T13:08:01.000Z,30
2018-07-24T13:09:01.000Z,30
2018-07-24T13:10:01.000Z,30
2018-07-24T13:11:01.000Z,30
2018-07-24T13:13:01.000Z,30
2018-07-24T13:14:01.000Z,30
2018-07-24T13:15:01.000Z,30
2018-07-24T13:16:01.000Z,30
2018-07-24T13:17:01.000Z,30
2018-07-24T13:18:01.000Z,30
2018-07-24T13:19:01.000Z,30
2018-07-24T13:20:01.000Z,30
2018-07-24T13:21:01.000Z,30
2018-07-24T13:22:01.000Z,30
2018-07-24T13:23:01.000Z,30
2018-07-24T13:24:01.000Z,30
2018-07-24T13:25:02.000Z,30
2018-07-24T13:26:02.000Z,30
2018-07-24T13:27:02.000Z,30
2018-07-24T13:28:02.000Z,30
2018-07-24T13:30:02.000Z,30
2018-07-24T13:31:02.000Z,30
2018-07-24T13:32:02.000Z,30
2018-07-24T13:33:02.000Z,30
2018-07-24T13:34:02.000Z,30
2018-07-24T13:35:02.000Z,30
2018-07-24T13:36:02.000Z,30
2018-07-24T13:37:02.000Z,30
2018-07-24T13:38:02.000Z,30
2018-07-24T13:39:02.000Z,30
2018-07-24T13:40:02.000Z,30
2018-07-24T13:41:02.000Z,30
2018-07-24T13:42:02.000Z,30
2018-07-24T13:43:02.000Z,30
2018-07-24T13:45:02.000Z,30
2018-07-24T13:46:02.000Z,30
2018-07-24T13:47:02.000Z,30
2018-07-24T13:48:02.000Z,30
2018-07-24T13:49:02.000Z,30
2018-07-24T13:50:02.000Z,30
2018-07-24T13:51:02.000Z,30
2018-07-24T13:52:02.000Z,30
2018-07-24T13:53:02.000Z,30
2018-07-24T13:54:02.000Z,30
2018-07-24T13:55:02.000Z,30
2018-07-24T13:56:02.000Z,30
2018-07-24T13:57:02.000Z,30
2018-07-24T13:58:02.000Z,30
2018-07-24T13:59:02.000Z,30
2018-07-24T14:00:02.000Z,30
2018-07-24T14:01:02.000Z,30
2018-07-24T14:02:02.000Z,30
2018-07-24T14:03:02.000Z,30
2018-07-24T14:04:02.000Z,30
2018-07-24T14:05:02.000Z,30
2018-07-24T14:06:02.000Z,31
2018-07-24T14:07:02.000Z,30
2018-07-24T14:09:02.000Z,30
2018-07-24T14:10:02.000Z,31
2018-07-24T14:12:02.000Z,30
2018-07-24T14:13:02.000Z,31
2018-07-24T14:14:02.000Z,31
2018-07-24T14:15:02.000Z,31
2018-07-24T14:16:02.000Z,31
2018-07-24T14:17:02.000Z,31
2018-07-24T14:18:02.000Z,31
2018-07-24T14:19:02.000Z,31
2018-07-24T14:20:02.000Z,31
2018-07-24T14:22:02.000Z,30
2018-07-24T14:23:02.000Z,31
2018-07-24T14:24:02.000Z,31
2018-07-24T14:25:02.000Z,31
2018-07-24T14:26:02.000Z,31
2018-07-24T14:27:02.000Z,31
2018-07-24T14:28:02.000Z,31
2018-07-24T14:29:02.000Z,31
2018-07-24T14:30:02.000Z,31
2018-07-24T14:32:02.000Z,31
2018-07-24T14:33:02.000Z,31
2018-07-24T14:34:02.000Z,31
2018-07-24T14:36:02.000Z,31
2018-07-24T14:37:02.000Z,31
2018-07-24T14:38:02.000Z,31
2018-07-24T14:39:02.000Z,31
2018-07-24T14:40:02.000Z,31
2018-07-24T14:41:02.000Z,31
2018-07-24T14:42:02.000Z,31
2018-07-24T14:44:02.000Z,31
2018-07-24T14:45:02.000Z,31
2018-07-24T14:46:02.000Z,31
2018-07-24T14:47:02.000Z,31
2018-07-24T14:48:02.000Z,31
2018-07-24T14:49:02.000Z,31
2018-07-24T14:50:02.000Z,31
2018-07-24T14:51:02.000Z,31
2018-07-24T14:52:02.000Z,31
2018-07-24T14:53:02.000Z,31
2018-07-24T14:54:02.000Z,31
2018-07-24T14:55:02.000Z,31
2018-07-24T14:57:02.000Z,31
2018-07-24T14:58:02.000Z,31
2018-07-24T14:59:02.000Z,31
2018-07-24T15:00:02.000Z,31
2018-07-24T15:01:02.000Z,31
2018-07-24T15:02:02.000Z,31
2018-07-24T15:03:02.000Z,31
2018-07-24T15:04:02.000Z,31
2018-07-24T15:05:02.000Z,31
2018-07-24T15:06:02.000Z,31
2018-07-24T15:07:02.000Z,31
2018-07-24T15:08:02.000Z,31
2018-07-24T15:09:02.000Z,31
2018-07-24T15:10:02.000Z,31
2018-07-24T15:11:02.000Z,31
2018-07-24T15:12:02.000Z,31
2018-07-24T15:13:02.000Z,31
2018-07-24T15:14:02.000Z,31
2018-07-24T15:15:02.000Z,31
2018-07-24T15:16:02.000Z,31
2018-07-24T15:17:02.000Z,31
2018-07-24T15:18:02.000Z,31
2018-07-24T15:19:02.000Z,31
2018-07-24T15:20:02.000Z,31
2018-07-24T15:21:02.000Z,31
2018-07-24T15:22:02.000Z,31
2018-07-24T15:23:02.000Z,31
2018-07-24T15:24:02.000Z,31
2018-07-24T15:26:02.000Z,31
2018-07-24T15:27:02.000Z,31
2018-07-24T15:28:02.000Z,31
2018-07-24T15:29:02.000Z,31
2018-07-24T15:30:02.000Z,31
2018-07-24T15:31:02.000Z,31
2018-07-24T15:32:02.000Z,31
2018-07-24T15:33:02.000Z,31
2018-07-24T15:34:02.000Z,31
2018-07-24T15:35:02.000Z,31
2018-07-24T15:36:02.000Z,31
2018-07-24T15:38:02.000Z,31
2018-07-24T15:39:02.000Z,31
2018-07-24T15:41:02.000Z,31
2018-07-24T15:42:02.000Z,31
2018-07-24T15:43:02.000Z,31
2018-07-24T15:44:02.000Z,31
2018-07-24T15:45:02.000Z,31
2018-07-24T15:46:02.000Z,31
2018-07-24T15:47:02.000Z,31
2018-07-24T15:48:02.000Z,31
2018-07-24T15:49:02.000Z,31
2018-07-24T15:50:02.000Z,31
2018-07-24T15:51:02.000Z,31
2018-07-24T15:52:02.000Z,31
2018-07-24T15:53:02.000Z,30
2018-07-24T15:54:02.000Z,31
2018-07-24T15:55:02.000Z,30
2018-07-24T15:56:02.000Z,31
2018-07-24T15:57:02.000Z,30
2018-07-24T15:58:02.000Z,30